sensor_id;sensor_type;location;lat;lon;timestamp;P1;durP1;ratioP1;P2;durP2;ratioP2
63690;SDS011;49837;57.280;27.070;2022-10-22T00:00:34;55.9;;;4.8;;
63690;SDS011;49837;57.280;27.070;2022-10-22T00:01:34;46.8;;;4.4;;
63690;SDS011;49837;57.280;27.070;2022-10-22T00:02:34;35.8;;;4.1;;
63690;SDS011;49837;57.280;27.070;2022-10-22T00:03:34;61.2;;;3.9;;
63690;SDS011;49837;57.280;27.070;2022-10-22T00:04:35;46.6;;;4.5;;
63690;SDS011;49837;57.280;27.070;2022-10-22T00:05:35;49.4;;;4.2;;
63690;SDS011;49837;57.280;27.070;2022-10-22T00:06:35;36.7;;;3.7;;
63690;SDS011;49837;57.280;27.070;2022-10-22T00:07:36;26.2;;;3.3;;
63690;SDS011;49837;57.280;27.070;2022-10-22T00:08:36;29.2;;;3.6;;
63690;SDS011;49837;57.280;27.070;2022-10-22T00:09:37;37.9;;;3.7;;
63690;SDS011;49837;57.280;27.070;2022-10-22T00:10:37;49.5;;;3.9;;
63690;SDS011;49837;57.280;27.070;2022-10-22T00:11:37;43.9;;;3.9;;
63690;SDS011;49837;57.280;27.070;2022-10-22T00:12:38;51.8;;;3.6;;
63690;SDS011;49837;57.280;27.070;2022-10-22T00:13:38;50.5;;;4.4;;
63690;SDS011;49837;57.280;27.070;2022-10-22T00:14:39;37.4;;;4.9;;
63690;SDS011;49837;57.280;27.070;2022-10-22T00:15:39;40.3;;;4.1;;
63690;SDS011;49837;57.280;27.070;2022-10-22T00:16:39;58.7;;;4.2;;
63690;SDS011;49837;57.280;27.070;2022-10-22T00:17:39;44.7;;;4.0;;
63690;SDS011;49837;57.280;27.070;2022-10-22T00:18:40;51.6;;;4.8;;
63690;SDS011;49837;57.280;27.070;2022-10-22T00:19:40;81.9;;;6.9;;
63690;SDS011;49837;57.280;27.070;2022-10-22T00:20:40;37.7;;;3.5;;
63690;SDS011;49837;57.280;27.070;2022-10-22T00:21:41;28.6;;;3.5;;
63690;SDS011;49837;57.280;27.070;2022-10-22T00:22:41;51.2;;;4.4;;
63690;SDS011;49837;57.280;27.070;2022-10-22T00:23:42;47.8;;;3.7;;
63690;SDS011;49837;57.280;27.070;2022-10-22T00:24:42;38.9;;;3.4;;
63690;SDS011;49837;57.280;27.070;2022-10-22T00:25:42;28.6;;;2.8;;
63690;SDS011;49837;57.280;27.070;2022-10-22T00:26:42;23.2;;;3.4;;
63690;SDS011;49837;57.280;27.070;2022-10-22T00:27:43;14.6;;;2.9;;
63690;SDS011;49837;57.280;27.070;2022-10-22T00:28:43;13.7;;;2.7;;
63690;SDS011;49837;57.280;27.070;2022-10-22T00:29:43;40.8;;;3.9;;
63690;SDS011;49837;57.280;27.070;2022-10-22T00:30:44;12.8;;;2.7;;
63690;SDS011;49837;57.280;27.070;2022-10-22T00:31:44;13.0;;;2.8;;
63690;SDS011;49837;57.280;27.070;2022-10-22T00:32:44;28.2;;;4.2;;
63690;SDS011;49837;57.280;27.070;2022-10-22T00:33:45;26.4;;;3.6;;
63690;SDS011;49837;57.280;27.070;2022-10-22T00:34:45;9.4;;;2.8;;
63690;SDS011;49837;57.280;27.070;2022-10-22T00:35:45;7.5;;;2.7;;
63690;SDS011;49837;57.280;27.070;2022-10-22T00:36:46;6.4;;;2.1;;
63690;SDS011;49837;57.280;27.070;2022-10-22T00:37:46;12.8;;;2.6;;
63690;SDS011;49837;57.280;27.070;2022-10-22T00:38:46;5.0;;;2.6;;
63690;SDS011;49837;57.280;27.070;2022-10-22T00:39:47;8.5;;;3.1;;
63690;SDS011;49837;57.280;27.070;2022-10-22T00:40:47;8.8;;;2.5;;
63690;SDS011;49837;57.280;27.070;2022-10-22T00:41:48;4.5;;;2.3;;
63690;SDS011;49837;57.280;27.070;2022-10-22T00:42:48;7.1;;;2.8;;
63690;SDS011;49837;57.280;27.070;2022-10-22T00:43:56;11.5;;;2.8;;
63690;SDS011;49837;57.280;27.070;2022-10-22T00:45:54;3.4;;;2.1;;
63690;SDS011;49837;57.280;27.070;2022-10-22T00:46:55;4.0;;;2.6;;
63690;SDS011;49837;57.280;27.070;2022-10-22T00:47:57;4.5;;;2.3;;
63690;SDS011;49837;57.280;27.070;2022-10-22T00:49:00;3.2;;;2.2;;
63690;SDS011;49837;57.280;27.070;2022-10-22T00:50:00;3.0;;;2.0;;
63690;SDS011;49837;57.280;27.070;2022-10-22T00:51:02;5.8;;;3.0;;
63690;SDS011;49837;57.280;27.070;2022-10-22T00:52:02;4.5;;;2.2;;
63690;SDS011;49837;57.280;27.070;2022-10-22T00:53:03;3.6;;;2.3;;
63690;SDS011;49837;57.280;27.070;2022-10-22T00:54:05;3.6;;;2.2;;
63690;SDS011;49837;57.280;27.070;2022-10-22T00:55:04;4.7;;;2.3;;
63690;SDS011;49837;57.280;27.070;2022-10-22T00:56:05;7.9;;;3.3;;
63690;SDS011;49837;57.280;27.070;2022-10-22T00:57:05;4.1;;;2.6;;
63690;SDS011;49837;57.280;27.070;2022-10-22T00:58:05;3.4;;;2.3;;
63690;SDS011;49837;57.280;27.070;2022-10-22T00:59:06;2.8;;;2.1;;
63690;SDS011;49837;57.280;27.070;2022-10-22T01:00:06;4.6;;;2.8;;
63690;SDS011;49837;57.280;27.070;2022-10-22T01:01:07;4.5;;;2.6;;
63690;SDS011;49837;57.280;27.070;2022-10-22T01:02:09;4.4;;;2.6;;
63690;SDS011;49837;57.280;27.070;2022-10-22T01:03:10;3.9;;;2.6;;
63690;SDS011;49837;57.280;27.070;2022-10-22T01:04:10;5.7;;;2.5;;
63690;SDS011;49837;57.280;27.070;2022-10-22T01:05:10;3.1;;;2.1;;
63690;SDS011;49837;57.280;27.070;2022-10-22T01:06:11;5.4;;;2.3;;
63690;SDS011;49837;57.280;27.070;2022-10-22T01:07:15;8.3;;;2.7;;
63690;SDS011;49837;57.280;27.070;2022-10-22T01:09:40;3.2;;;2.2;;
63690;SDS011;49837;57.280;27.070;2022-10-22T01:13:52;3.5;;;2.4;;
63690;SDS011;49837;57.280;27.070;2022-10-22T01:14:40;4.3;;;2.1;;
63690;SDS011;49837;57.280;27.070;2022-10-22T01:16:43;3.6;;;2.4;;
63690;SDS011;49837;57.280;27.070;2022-10-22T01:20:02;4.1;;;2.4;;
63690;SDS011;49837;57.280;27.070;2022-10-22T01:21:50;6.6;;;2.5;;
63690;SDS011;49837;57.280;27.070;2022-10-22T01:25:11;3.4;;;2.3;;
63690;SDS011;49837;57.280;27.070;2022-10-22T01:27:30;4.6;;;2.3;;
63690;SDS011;49837;57.280;27.070;2022-10-22T01:28:17;3.3;;;2.4;;
63690;SDS011;49837;57.280;27.070;2022-10-22T01:29:18;3.4;;;2.1;;
63690;SDS011;49837;57.280;27.070;2022-10-22T01:30:22;3.3;;;2.4;;
63690;SDS011;49837;57.280;27.070;2022-10-22T01:31:23;5.6;;;2.1;;
63690;SDS011;49837;57.280;27.070;2022-10-22T01:32:24;3.6;;;2.2;;
63690;SDS011;49837;57.280;27.070;2022-10-22T01:33:24;3.6;;;2.2;;
63690;SDS011;49837;57.280;27.070;2022-10-22T01:34:24;3.6;;;2.3;;
63690;SDS011;49837;57.280;27.070;2022-10-22T01:35:26;3.3;;;2.3;;
63690;SDS011;49837;57.280;27.070;2022-10-22T01:36:28;3.5;;;2.3;;
63690;SDS011;49837;57.280;27.070;2022-10-22T01:37:28;4.2;;;2.4;;
63690;SDS011;49837;57.280;27.070;2022-10-22T01:38:29;4.0;;;2.4;;
63690;SDS011;49837;57.280;27.070;2022-10-22T01:39:29;3.9;;;2.3;;
63690;SDS011;49837;57.280;27.070;2022-10-22T01:40:29;3.9;;;2.1;;
63690;SDS011;49837;57.280;27.070;2022-10-22T01:41:30;3.3;;;2.3;;
63690;SDS011;49837;57.280;27.070;2022-10-22T01:42:30;3.8;;;2.6;;
63690;SDS011;49837;57.280;27.070;2022-10-22T01:43:30;4.5;;;2.4;;
63690;SDS011;49837;57.280;27.070;2022-10-22T01:44:31;3.1;;;2.2;;
63690;SDS011;49837;57.280;27.070;2022-10-22T01:46:33;3.7;;;2.4;;
63690;SDS011;49837;57.280;27.070;2022-10-22T01:48:57;2.7;;;2.2;;
63690;SDS011;49837;57.280;27.070;2022-10-22T01:50:58;4.4;;;2.2;;
63690;SDS011;49837;57.280;27.070;2022-10-22T01:51:56;3.9;;;2.2;;
63690;SDS011;49837;57.280;27.070;2022-10-22T01:54:07;3.6;;;2.1;;
63690;SDS011;49837;57.280;27.070;2022-10-22T01:54:58;3.6;;;2.1;;
63690;SDS011;49837;57.280;27.070;2022-10-22T01:59:28;5.0;;;2.3;;
63690;SDS011;49837;57.280;27.070;2022-10-22T02:00:11;4.2;;;2.4;;
63690;SDS011;49837;57.280;27.070;2022-10-22T02:01:19;3.7;;;2.1;;
63690;SDS011;49837;57.280;27.070;2022-10-22T02:03:20;3.5;;;2.4;;
63690;SDS011;49837;57.280;27.070;2022-10-22T02:04:26;3.8;;;2.5;;
63690;SDS011;49837;57.280;27.070;2022-10-22T02:05:31;4.7;;;2.4;;
63690;SDS011;49837;57.280;27.070;2022-10-22T02:06:27;4.1;;;2.4;;
63690;SDS011;49837;57.280;27.070;2022-10-22T02:07:30;3.6;;;2.3;;
63690;SDS011;49837;57.280;27.070;2022-10-22T02:08:32;4.5;;;2.3;;
63690;SDS011;49837;57.280;27.070;2022-10-22T02:09:32;4.0;;;2.2;;
63690;SDS011;49837;57.280;27.070;2022-10-22T02:10:32;4.9;;;2.4;;
63690;SDS011;49837;57.280;27.070;2022-10-22T02:11:33;3.6;;;2.1;;
63690;SDS011;49837;57.280;27.070;2022-10-22T02:12:33;8.2;;;2.5;;
63690;SDS011;49837;57.280;27.070;2022-10-22T02:13:39;4.0;;;2.3;;
63690;SDS011;49837;57.280;27.070;2022-10-22T02:14:36;3.8;;;2.2;;
63690;SDS011;49837;57.280;27.070;2022-10-22T02:15:37;3.4;;;2.2;;
63690;SDS011;49837;57.280;27.070;2022-10-22T02:16:38;6.5;;;2.3;;
63690;SDS011;49837;57.280;27.070;2022-10-22T02:17:38;4.5;;;2.3;;
63690;SDS011;49837;57.280;27.070;2022-10-22T02:18:42;3.9;;;2.5;;
63690;SDS011;49837;57.280;27.070;2022-10-22T02:19:55;4.3;;;2.2;;
63690;SDS011;49837;57.280;27.070;2022-10-22T02:20:45;4.2;;;2.2;;
63690;SDS011;49837;57.280;27.070;2022-10-22T02:21:46;4.5;;;2.2;;
63690;SDS011;49837;57.280;27.070;2022-10-22T02:22:46;5.1;;;2.4;;
63690;SDS011;49837;57.280;27.070;2022-10-22T02:23:46;3.4;;;2.1;;
63690;SDS011;49837;57.280;27.070;2022-10-22T02:24:47;7.3;;;2.3;;
63690;SDS011;49837;57.280;27.070;2022-10-22T02:25:48;3.5;;;2.2;;
63690;SDS011;49837;57.280;27.070;2022-10-22T02:26:54;3.0;;;2.2;;
63690;SDS011;49837;57.280;27.070;2022-10-22T02:27:57;3.2;;;2.1;;
63690;SDS011;49837;57.280;27.070;2022-10-22T02:29:13;3.5;;;2.2;;
63690;SDS011;49837;57.280;27.070;2022-10-22T02:30:15;9.0;;;2.3;;
63690;SDS011;49837;57.280;27.070;2022-10-22T02:31:00;4.0;;;2.1;;
63690;SDS011;49837;57.280;27.070;2022-10-22T02:32:00;4.4;;;2.0;;
63690;SDS011;49837;57.280;27.070;2022-10-22T02:33:02;3.9;;;2.1;;
63690;SDS011;49837;57.280;27.070;2022-10-22T02:34:06;5.1;;;2.2;;
63690;SDS011;49837;57.280;27.070;2022-10-22T02:35:07;3.0;;;2.1;;
63690;SDS011;49837;57.280;27.070;2022-10-22T02:36:09;4.0;;;2.1;;
63690;SDS011;49837;57.280;27.070;2022-10-22T02:37:09;4.9;;;1.9;;
63690;SDS011;49837;57.280;27.070;2022-10-22T02:38:10;3.2;;;2.2;;
63690;SDS011;49837;57.280;27.070;2022-10-22T02:39:10;3.6;;;2.0;;
63690;SDS011;49837;57.280;27.070;2022-10-22T02:40:11;3.7;;;2.0;;
63690;SDS011;49837;57.280;27.070;2022-10-22T02:41:11;2.9;;;2.1;;
63690;SDS011;49837;57.280;27.070;2022-10-22T02:42:11;4.1;;;2.2;;
63690;SDS011;49837;57.280;27.070;2022-10-22T02:43:12;3.6;;;2.0;;
63690;SDS011;49837;57.280;27.070;2022-10-22T02:44:12;4.3;;;2.1;;
63690;SDS011;49837;57.280;27.070;2022-10-22T02:45:12;4.2;;;2.2;;
63690;SDS011;49837;57.280;27.070;2022-10-22T02:46:13;3.5;;;2.1;;
63690;SDS011;49837;57.280;27.070;2022-10-22T02:47:13;3.1;;;1.9;;
63690;SDS011;49837;57.280;27.070;2022-10-22T02:48:13;3.6;;;2.1;;
63690;SDS011;49837;57.280;27.070;2022-10-22T02:49:14;3.5;;;2.0;;
63690;SDS011;49837;57.280;27.070;2022-10-22T02:50:14;3.7;;;2.1;;
63690;SDS011;49837;57.280;27.070;2022-10-22T02:51:14;4.4;;;2.2;;
63690;SDS011;49837;57.280;27.070;2022-10-22T02:52:15;5.1;;;2.2;;
63690;SDS011;49837;57.280;27.070;2022-10-22T02:53:15;5.9;;;2.1;;
63690;SDS011;49837;57.280;27.070;2022-10-22T02:54:15;3.2;;;2.1;;
63690;SDS011;49837;57.280;27.070;2022-10-22T02:55:16;5.6;;;2.2;;
63690;SDS011;49837;57.280;27.070;2022-10-22T02:56:16;4.0;;;2.1;;
63690;SDS011;49837;57.280;27.070;2022-10-22T02:57:17;4.9;;;2.2;;
63690;SDS011;49837;57.280;27.070;2022-10-22T02:58:17;3.6;;;2.1;;
63690;SDS011;49837;57.280;27.070;2022-10-22T02:59:17;4.5;;;2.0;;
63690;SDS011;49837;57.280;27.070;2022-10-22T03:00:18;3.4;;;2.3;;
63690;SDS011;49837;57.280;27.070;2022-10-22T03:01:18;4.9;;;2.2;;
63690;SDS011;49837;57.280;27.070;2022-10-22T03:02:18;2.6;;;1.9;;
63690;SDS011;49837;57.280;27.070;2022-10-22T03:03:19;2.8;;;2.1;;
63690;SDS011;49837;57.280;27.070;2022-10-22T03:04:19;3.8;;;2.1;;
63690;SDS011;49837;57.280;27.070;2022-10-22T03:05:19;3.6;;;1.9;;
63690;SDS011;49837;57.280;27.070;2022-10-22T03:06:20;3.6;;;2.1;;
63690;SDS011;49837;57.280;27.070;2022-10-22T03:07:20;3.8;;;2.1;;
63690;SDS011;49837;57.280;27.070;2022-10-22T03:08:20;3.7;;;2.3;;
63690;SDS011;49837;57.280;27.070;2022-10-22T03:09:21;4.5;;;1.9;;
63690;SDS011;49837;57.280;27.070;2022-10-22T03:10:21;3.0;;;2.0;;
63690;SDS011;49837;57.280;27.070;2022-10-22T03:11:21;5.1;;;2.4;;
63690;SDS011;49837;57.280;27.070;2022-10-22T03:12:22;4.9;;;2.2;;
63690;SDS011;49837;57.280;27.070;2022-10-22T03:13:22;4.6;;;2.1;;
63690;SDS011;49837;57.280;27.070;2022-10-22T03:14:22;2.8;;;2.0;;
63690;SDS011;49837;57.280;27.070;2022-10-22T03:15:23;2.9;;;2.0;;
63690;SDS011;49837;57.280;27.070;2022-10-22T03:16:23;3.1;;;1.9;;
63690;SDS011;49837;57.280;27.070;2022-10-22T03:17:24;4.9;;;1.9;;
63690;SDS011;49837;57.280;27.070;2022-10-22T03:18:24;3.4;;;2.1;;
63690;SDS011;49837;57.280;27.070;2022-10-22T03:19:24;3.1;;;2.1;;
63690;SDS011;49837;57.280;27.070;2022-10-22T03:20:25;5.0;;;1.9;;
63690;SDS011;49837;57.280;27.070;2022-10-22T03:21:28;4.0;;;2.2;;
63690;SDS011;49837;57.280;27.070;2022-10-22T03:22:28;8.2;;;3.6;;
63690;SDS011;49837;57.280;27.070;2022-10-22T03:23:27;24.9;;;8.3;;
63690;SDS011;49837;57.280;27.070;2022-10-22T03:24:29;59.7;;;20.6;;
63690;SDS011;49837;57.280;27.070;2022-10-22T03:25:32;86.8;;;30.1;;
63690;SDS011;49837;57.280;27.070;2022-10-22T03:26:32;85.0;;;28.0;;
63690;SDS011;49837;57.280;27.070;2022-10-22T03:27:33;86.8;;;30.7;;
63690;SDS011;49837;57.280;27.070;2022-10-22T03:28:34;96.9;;;32.6;;
63690;SDS011;49837;57.280;27.070;2022-10-22T03:29:34;92.3;;;32.6;;
63690;SDS011;49837;57.280;27.070;2022-10-22T03:30:34;68.7;;;24.0;;
63690;SDS011;49837;57.280;27.070;2022-10-22T03:31:34;47.2;;;18.8;;
63690;SDS011;49837;57.280;27.070;2022-10-22T03:32:35;47.4;;;17.3;;
63690;SDS011;49837;57.280;27.070;2022-10-22T03:33:35;31.6;;;11.7;;
63690;SDS011;49837;57.280;27.070;2022-10-22T03:34:36;31.4;;;12.8;;
63690;SDS011;49837;57.280;27.070;2022-10-22T03:35:38;21.3;;;8.3;;
63690;SDS011;49837;57.280;27.070;2022-10-22T03:36:39;16.8;;;6.5;;
63690;SDS011;49837;57.280;27.070;2022-10-22T03:37:40;11.8;;;6.1;;
63690;SDS011;49837;57.280;27.070;2022-10-22T03:38:40;14.7;;;6.8;;
63690;SDS011;49837;57.280;27.070;2022-10-22T03:39:40;14.2;;;6.3;;
63690;SDS011;49837;57.280;27.070;2022-10-22T03:40:41;14.2;;;7.6;;
63690;SDS011;49837;57.280;27.070;2022-10-22T03:41:41;18.2;;;8.7;;
63690;SDS011;49837;57.280;27.070;2022-10-22T03:42:42;16.5;;;8.1;;
63690;SDS011;49837;57.280;27.070;2022-10-22T03:43:42;20.7;;;9.5;;
63690;SDS011;49837;57.280;27.070;2022-10-22T03:44:42;36.8;;;19.5;;
63690;SDS011;49837;57.280;27.070;2022-10-22T03:45:43;44.7;;;23.8;;
63690;SDS011;49837;57.280;27.070;2022-10-22T03:46:43;42.9;;;22.8;;
63690;SDS011;49837;57.280;27.070;2022-10-22T03:47:43;35.9;;;19.1;;
63690;SDS011;49837;57.280;27.070;2022-10-22T03:48:44;20.8;;;11.6;;
63690;SDS011;49837;57.280;27.070;2022-10-22T03:49:44;26.1;;;14.6;;
63690;SDS011;49837;57.280;27.070;2022-10-22T03:50:45;28.6;;;16.8;;
63690;SDS011;49837;57.280;27.070;2022-10-22T03:51:45;24.7;;;14.7;;
63690;SDS011;49837;57.280;27.070;2022-10-22T03:52:45;22.1;;;13.2;;
63690;SDS011;49837;57.280;27.070;2022-10-22T03:53:46;16.9;;;9.6;;
63690;SDS011;49837;57.280;27.070;2022-10-22T03:54:46;19.5;;;9.6;;
63690;SDS011;49837;57.280;27.070;2022-10-22T03:55:46;15.7;;;9.2;;
63690;SDS011;49837;57.280;27.070;2022-10-22T03:56:47;16.5;;;9.8;;
63690;SDS011;49837;57.280;27.070;2022-10-22T03:57:47;11.7;;;7.1;;
63690;SDS011;49837;57.280;27.070;2022-10-22T03:58:47;9.6;;;5.4;;
63690;SDS011;49837;57.280;27.070;2022-10-22T03:59:48;11.5;;;5.6;;
63690;SDS011;49837;57.280;27.070;2022-10-22T04:00:48;8.0;;;4.6;;
63690;SDS011;49837;57.280;27.070;2022-10-22T04:01:49;9.9;;;5.4;;
63690;SDS011;49837;57.280;27.070;2022-10-22T04:02:49;8.7;;;5.3;;
63690;SDS011;49837;57.280;27.070;2022-10-22T04:03:49;9.1;;;5.5;;
63690;SDS011;49837;57.280;27.070;2022-10-22T04:04:50;8.4;;;4.8;;
63690;SDS011;49837;57.280;27.070;2022-10-22T04:05:50;8.4;;;4.8;;
63690;SDS011;49837;57.280;27.070;2022-10-22T04:06:50;9.4;;;4.8;;
63690;SDS011;49837;57.280;27.070;2022-10-22T04:07:51;7.0;;;4.4;;
63690;SDS011;49837;57.280;27.070;2022-10-22T04:08:51;7.3;;;4.0;;
63690;SDS011;49837;57.280;27.070;2022-10-22T04:09:51;6.9;;;4.3;;
63690;SDS011;49837;57.280;27.070;2022-10-22T04:10:52;7.6;;;4.3;;
63690;SDS011;49837;57.280;27.070;2022-10-22T04:11:52;7.1;;;3.9;;
63690;SDS011;49837;57.280;27.070;2022-10-22T04:12:52;6.9;;;4.1;;
63690;SDS011;49837;57.280;27.070;2022-10-22T04:13:53;6.1;;;4.1;;
63690;SDS011;49837;57.280;27.070;2022-10-22T04:14:53;7.0;;;4.4;;
63690;SDS011;49837;57.280;27.070;2022-10-22T04:15:54;7.4;;;4.0;;
63690;SDS011;49837;57.280;27.070;2022-10-22T04:16:54;7.1;;;4.1;;
63690;SDS011;49837;57.280;27.070;2022-10-22T04:17:54;7.0;;;3.9;;
63690;SDS011;49837;57.280;27.070;2022-10-22T04:18:55;6.5;;;4.1;;
63690;SDS011;49837;57.280;27.070;2022-10-22T04:19:55;8.4;;;3.6;;
63690;SDS011;49837;57.280;27.070;2022-10-22T04:20:55;4.8;;;3.3;;
63690;SDS011;49837;57.280;27.070;2022-10-22T04:21:59;4.4;;;2.6;;
63690;SDS011;49837;57.280;27.070;2022-10-22T04:22:56;3.8;;;2.5;;
63690;SDS011;49837;57.280;27.070;2022-10-22T04:23:56;3.4;;;2.4;;
63690;SDS011;49837;57.280;27.070;2022-10-22T04:24:57;3.5;;;2.4;;
63690;SDS011;49837;57.280;27.070;2022-10-22T04:25:57;3.6;;;2.4;;
63690;SDS011;49837;57.280;27.070;2022-10-22T04:26:59;5.0;;;2.4;;
63690;SDS011;49837;57.280;27.070;2022-10-22T04:27:59;4.0;;;2.4;;
63690;SDS011;49837;57.280;27.070;2022-10-22T04:29:00;3.7;;;2.4;;
63690;SDS011;49837;57.280;27.070;2022-10-22T04:30:00;4.5;;;2.0;;
63690;SDS011;49837;57.280;27.070;2022-10-22T04:31:05;3.2;;;2.1;;
63690;SDS011;49837;57.280;27.070;2022-10-22T04:32:03;4.3;;;2.3;;
63690;SDS011;49837;57.280;27.070;2022-10-22T04:33:03;2.5;;;2.0;;
63690;SDS011;49837;57.280;27.070;2022-10-22T04:34:03;3.3;;;2.2;;
63690;SDS011;49837;57.280;27.070;2022-10-22T04:35:04;3.7;;;2.2;;
63690;SDS011;49837;57.280;27.070;2022-10-22T04:37:09;3.3;;;2.2;;
63690;SDS011;49837;57.280;27.070;2022-10-22T04:38:10;5.1;;;2.5;;
63690;SDS011;49837;57.280;27.070;2022-10-22T04:39:10;4.2;;;2.2;;
63690;SDS011;49837;57.280;27.070;2022-10-22T04:40:11;3.4;;;2.3;;
63690;SDS011;49837;57.280;27.070;2022-10-22T04:41:14;3.6;;;2.1;;
63690;SDS011;49837;57.280;27.070;2022-10-22T04:42:13;3.5;;;2.3;;
63690;SDS011;49837;57.280;27.070;2022-10-22T04:43:14;3.1;;;2.2;;
63690;SDS011;49837;57.280;27.070;2022-10-22T04:44:14;5.1;;;2.3;;
63690;SDS011;49837;57.280;27.070;2022-10-22T04:45:15;3.2;;;2.3;;
63690;SDS011;49837;57.280;27.070;2022-10-22T04:46:16;5.4;;;2.2;;
63690;SDS011;49837;57.280;27.070;2022-10-22T04:47:15;4.7;;;2.4;;
63690;SDS011;49837;57.280;27.070;2022-10-22T04:48:16;4.4;;;2.2;;
63690;SDS011;49837;57.280;27.070;2022-10-22T04:49:16;3.9;;;2.2;;
63690;SDS011;49837;57.280;27.070;2022-10-22T04:50:16;5.0;;;2.9;;
63690;SDS011;49837;57.280;27.070;2022-10-22T04:51:17;5.0;;;2.5;;
63690;SDS011;49837;57.280;27.070;2022-10-22T04:52:17;4.8;;;2.6;;
63690;SDS011;49837;57.280;27.070;2022-10-22T04:53:17;4.8;;;2.7;;
63690;SDS011;49837;57.280;27.070;2022-10-22T04:54:18;5.0;;;2.7;;
63690;SDS011;49837;57.280;27.070;2022-10-22T04:55:18;7.7;;;3.0;;
63690;SDS011;49837;57.280;27.070;2022-10-22T04:56:20;5.0;;;2.8;;
63690;SDS011;49837;57.280;27.070;2022-10-22T04:57:20;7.4;;;3.1;;
63690;SDS011;49837;57.280;27.070;2022-10-22T04:58:20;5.0;;;3.1;;
63690;SDS011;49837;57.280;27.070;2022-10-22T04:59:21;7.2;;;3.5;;
63690;SDS011;49837;57.280;27.070;2022-10-22T05:00:21;6.9;;;3.5;;
63690;SDS011;49837;57.280;27.070;2022-10-22T05:01:22;6.6;;;3.4;;
63690;SDS011;49837;57.280;27.070;2022-10-22T05:02:24;8.7;;;3.9;;
63690;SDS011;49837;57.280;27.070;2022-10-22T05:03:25;6.0;;;3.6;;
63690;SDS011;49837;57.280;27.070;2022-10-22T05:04:25;6.8;;;3.6;;
63690;SDS011;49837;57.280;27.070;2022-10-22T05:05:25;8.7;;;4.1;;
63690;SDS011;49837;57.280;27.070;2022-10-22T05:06:26;8.0;;;4.6;;
63690;SDS011;49837;57.280;27.070;2022-10-22T05:07:26;9.9;;;4.5;;
63690;SDS011;49837;57.280;27.070;2022-10-22T05:08:27;7.7;;;4.5;;
63690;SDS011;49837;57.280;27.070;2022-10-22T05:09:27;9.6;;;4.1;;
63690;SDS011;49837;57.280;27.070;2022-10-22T05:10:27;5.8;;;3.3;;
63690;SDS011;49837;57.280;27.070;2022-10-22T05:11:29;6.6;;;3.6;;
63690;SDS011;49837;57.280;27.070;2022-10-22T05:12:28;6.4;;;3.5;;
63690;SDS011;49837;57.280;27.070;2022-10-22T05:13:29;7.2;;;3.0;;
63690;SDS011;49837;57.280;27.070;2022-10-22T05:14:29;5.4;;;2.9;;
63690;SDS011;49837;57.280;27.070;2022-10-22T05:15:29;4.9;;;2.7;;
63690;SDS011;49837;57.280;27.070;2022-10-22T05:16:30;5.7;;;3.5;;
63690;SDS011;49837;57.280;27.070;2022-10-22T05:17:30;5.8;;;3.4;;
63690;SDS011;49837;57.280;27.070;2022-10-22T05:18:32;6.8;;;3.3;;
63690;SDS011;49837;57.280;27.070;2022-10-22T05:19:34;6.8;;;3.5;;
63690;SDS011;49837;57.280;27.070;2022-10-22T05:20:37;4.9;;;3.3;;
63690;SDS011;49837;57.280;27.070;2022-10-22T05:21:36;5.7;;;3.2;;
63690;SDS011;49837;57.280;27.070;2022-10-22T05:22:36;7.3;;;3.3;;
63690;SDS011;49837;57.280;27.070;2022-10-22T05:23:36;7.1;;;3.1;;
63690;SDS011;49837;57.280;27.070;2022-10-22T05:24:37;5.6;;;3.3;;
63690;SDS011;49837;57.280;27.070;2022-10-22T05:25:37;6.7;;;3.6;;
63690;SDS011;49837;57.280;27.070;2022-10-22T05:26:37;4.7;;;2.6;;
63690;SDS011;49837;57.280;27.070;2022-10-22T05:27:38;7.5;;;3.3;;
63690;SDS011;49837;57.280;27.070;2022-10-22T05:28:38;7.0;;;3.3;;
63690;SDS011;49837;57.280;27.070;2022-10-22T05:29:38;3.7;;;2.2;;
63690;SDS011;49837;57.280;27.070;2022-10-22T05:30:39;4.9;;;2.3;;
63690;SDS011;49837;57.280;27.070;2022-10-22T05:31:39;5.1;;;2.7;;
63690;SDS011;49837;57.280;27.070;2022-10-22T05:32:39;4.4;;;2.2;;
63690;SDS011;49837;57.280;27.070;2022-10-22T05:33:40;5.9;;;3.2;;
63690;SDS011;49837;57.280;27.070;2022-10-22T05:34:40;4.6;;;2.5;;
63690;SDS011;49837;57.280;27.070;2022-10-22T05:35:41;5.6;;;3.3;;
63690;SDS011;49837;57.280;27.070;2022-10-22T05:36:42;6.5;;;3.4;;
63690;SDS011;49837;57.280;27.070;2022-10-22T05:37:43;8.1;;;3.0;;
63690;SDS011;49837;57.280;27.070;2022-10-22T05:38:43;5.7;;;3.3;;
63690;SDS011;49837;57.280;27.070;2022-10-22T05:39:44;3.6;;;2.4;;
63690;SDS011;49837;57.280;27.070;2022-10-22T05:40:44;3.9;;;2.6;;
63690;SDS011;49837;57.280;27.070;2022-10-22T05:41:44;4.7;;;2.3;;
63690;SDS011;49837;57.280;27.070;2022-10-22T05:42:45;3.3;;;1.9;;
63690;SDS011;49837;57.280;27.070;2022-10-22T05:43:45;2.5;;;1.6;;
63690;SDS011;49837;57.280;27.070;2022-10-22T05:44:45;3.0;;;1.7;;
63690;SDS011;49837;57.280;27.070;2022-10-22T05:45:46;3.6;;;1.9;;
63690;SDS011;49837;57.280;27.070;2022-10-22T05:46:46;3.1;;;1.7;;
63690;SDS011;49837;57.280;27.070;2022-10-22T05:47:46;2.8;;;1.6;;
63690;SDS011;49837;57.280;27.070;2022-10-22T05:48:47;3.6;;;1.5;;
63690;SDS011;49837;57.280;27.070;2022-10-22T05:49:49;3.0;;;1.7;;
63690;SDS011;49837;57.280;27.070;2022-10-22T05:50:49;2.3;;;1.7;;
63690;SDS011;49837;57.280;27.070;2022-10-22T05:51:49;2.3;;;1.6;;
63690;SDS011;49837;57.280;27.070;2022-10-22T05:52:50;3.2;;;1.9;;
63690;SDS011;49837;57.280;27.070;2022-10-22T05:54:00;2.5;;;1.6;;
63690;SDS011;49837;57.280;27.070;2022-10-22T05:54:51;3.9;;;1.7;;
63690;SDS011;49837;57.280;27.070;2022-10-22T05:55:51;2.4;;;1.6;;
63690;SDS011;49837;57.280;27.070;2022-10-22T05:56:52;3.5;;;1.6;;
63690;SDS011;49837;57.280;27.070;2022-10-22T05:57:52;2.9;;;1.5;;
63690;SDS011;49837;57.280;27.070;2022-10-22T05:58:52;3.2;;;1.7;;
63690;SDS011;49837;57.280;27.070;2022-10-22T05:59:53;2.9;;;1.6;;
63690;SDS011;49837;57.280;27.070;2022-10-22T06:00:53;2.5;;;1.7;;
63690;SDS011;49837;57.280;27.070;2022-10-22T06:01:54;3.5;;;1.8;;
63690;SDS011;49837;57.280;27.070;2022-10-22T06:02:54;5.0;;;1.7;;
63690;SDS011;49837;57.280;27.070;2022-10-22T06:03:58;4.2;;;1.7;;
63690;SDS011;49837;57.280;27.070;2022-10-22T06:04:58;3.6;;;1.5;;
63690;SDS011;49837;57.280;27.070;2022-10-22T06:05:59;2.3;;;1.4;;
63690;SDS011;49837;57.280;27.070;2022-10-22T06:06:58;4.1;;;1.6;;
63690;SDS011;49837;57.280;27.070;2022-10-22T06:07:59;3.3;;;1.7;;
63690;SDS011;49837;57.280;27.070;2022-10-22T06:09:00;2.7;;;1.5;;
63690;SDS011;49837;57.280;27.070;2022-10-22T06:10:01;4.2;;;1.9;;
63690;SDS011;49837;57.280;27.070;2022-10-22T06:11:01;2.6;;;1.6;;
63690;SDS011;49837;57.280;27.070;2022-10-22T06:12:02;1.8;;;1.5;;
63690;SDS011;49837;57.280;27.070;2022-10-22T06:13:02;2.9;;;1.7;;
63690;SDS011;49837;57.280;27.070;2022-10-22T06:14:03;3.0;;;1.7;;
63690;SDS011;49837;57.280;27.070;2022-10-22T06:15:03;4.2;;;1.8;;
63690;SDS011;49837;57.280;27.070;2022-10-22T06:16:03;3.2;;;1.8;;
63690;SDS011;49837;57.280;27.070;2022-10-22T06:17:04;2.6;;;1.6;;
63690;SDS011;49837;57.280;27.070;2022-10-22T06:18:04;4.2;;;1.6;;
63690;SDS011;49837;57.280;27.070;2022-10-22T06:19:04;2.7;;;1.5;;
63690;SDS011;49837;57.280;27.070;2022-10-22T06:20:05;3.7;;;1.4;;
63690;SDS011;49837;57.280;27.070;2022-10-22T06:21:06;3.4;;;1.5;;
63690;SDS011;49837;57.280;27.070;2022-10-22T06:22:06;3.6;;;1.7;;
63690;SDS011;49837;57.280;27.070;2022-10-22T06:23:06;3.0;;;1.6;;
63690;SDS011;49837;57.280;27.070;2022-10-22T06:24:07;3.5;;;1.5;;
63690;SDS011;49837;57.280;27.070;2022-10-22T06:25:07;3.8;;;1.6;;
63690;SDS011;49837;57.280;27.070;2022-10-22T06:26:07;2.2;;;1.6;;
63690;SDS011;49837;57.280;27.070;2022-10-22T06:27:07;4.6;;;1.6;;
63690;SDS011;49837;57.280;27.070;2022-10-22T06:28:08;2.6;;;1.6;;
63690;SDS011;49837;57.280;27.070;2022-10-22T06:29:08;3.6;;;1.7;;
63690;SDS011;49837;57.280;27.070;2022-10-22T06:30:09;4.1;;;1.9;;
63690;SDS011;49837;57.280;27.070;2022-10-22T06:31:09;4.8;;;1.5;;
63690;SDS011;49837;57.280;27.070;2022-10-22T06:32:09;2.7;;;1.8;;